createdAt,value
2023-03-30T00:03:39.226Z,12.52
2023-03-30T00:08:43.902Z,12.51
2023-03-30T00:13:47.568Z,12.40
2023-03-30T00:18:50.812Z,12.44
2023-03-30T00:23:55.559Z,12.33
2023-03-30T00:28:58.724Z,12.16
2023-03-30T00:34:01.793Z,12.19
2023-03-30T00:39:08.562Z,12.18
2023-03-30T00:44:45.072Z,11.86
2023-03-30T00:49:48.762Z,11.98
2023-03-30T00:54:57.307Z,12.00
2023-03-30T01:00:00.901Z,12.06
2023-03-30T01:05:06.263Z,12.17
2023-03-30T01:10:12.803Z,12.16
2023-03-30T01:15:17.807Z,12.10
2023-03-30T01:20:41.212Z,12.14
2023-03-30T01:26:09.768Z,12.14
2023-03-30T01:31:32.406Z,12.19
2023-03-30T01:37:01.532Z,12.27
2023-03-30T01:42:13.963Z,12.12
2023-03-30T01:47:20.916Z,12.08
2023-03-30T01:52:28.948Z,11.94
2023-03-30T01:57:39.401Z,11.77
2023-03-30T02:02:47.130Z,11.62
2023-03-30T02:07:54.093Z,11.66
2023-03-30T02:13:01.013Z,11.72
2023-03-30T02:18:05.015Z,11.71
2023-03-30T02:23:08.641Z,11.70
2023-03-30T02:28:13.538Z,11.68
2023-03-30T02:33:28.567Z,11.57
2023-03-30T02:38:56.162Z,11.60
2023-03-30T02:44:11.305Z,11.38
2023-03-30T02:49:21.850Z,11.37
2023-03-30T02:54:37.545Z,11.16
2023-03-30T03:00:01.943Z,10.96
2023-03-30T03:05:07.910Z,10.79
2023-03-30T03:10:25.996Z,10.66
2023-03-30T03:15:30.714Z,10.58
2023-03-30T03:20:43.594Z,10.73
2023-03-30T03:25:48.410Z,10.85
2023-03-30T03:30:55.660Z,10.86
2023-03-30T03:36:01.184Z,10.83
2023-03-30T03:41:07.492Z,10.83
2023-03-30T03:46:13.002Z,10.81
2023-03-30T03:51:16.214Z,10.51
2023-03-30T03:56:19.733Z,10.82
2023-03-30T04:01:24.396Z,10.86
2023-03-30T04:06:28.691Z,11.00
2023-03-30T04:11:32.548Z,11.10
2023-03-30T04:16:57.828Z,11.34
2023-03-30T04:22:27.050Z,11.43
2023-03-30T04:27:57.875Z,11.26
2023-03-30T04:33:35.201Z,11.13
2023-03-30T04:38:59.803Z,10.98
2023-03-30T04:44:22.197Z,10.46
2023-03-30T04:50:02.784Z,10.46
2023-03-30T04:55:14.921Z,10.62
2023-03-30T05:00:30.604Z,10.74
2023-03-30T05:05:58.272Z,10.68
2023-03-30T05:11:30.931Z,10.97
2023-03-30T05:16:42.170Z,10.97
2023-03-30T05:22:12.622Z,10.99
2023-03-30T05:27:38.687Z,11.09
2023-03-30T05:32:51.464Z,10.98
2023-03-30T05:38:14.835Z,11.04
2023-03-30T05:43:56.430Z,10.77
2023-03-30T05:49:20.068Z,10.68
2023-03-30T05:54:47.498Z,10.50
2023-03-30T06:00:13.693Z,10.50
2023-03-30T06:05:26.641Z,10.64
2023-03-30T06:10:32.356Z,10.86
2023-03-30T06:15:35.670Z,10.76
2023-03-30T06:20:47.759Z,11.21
2023-03-30T06:25:54.611Z,11.10
2023-03-30T06:31:09.613Z,11.11
2023-03-30T06:36:15.233Z,10.95
2023-03-30T06:41:23.059Z,11.00
2023-03-30T06:46:27.692Z,11.17
2023-03-30T06:51:31.529Z,11.28
2023-03-30T06:56:38.546Z,11.34
2023-03-30T07:01:45.902Z,11.09
2023-03-30T07:07:09.341Z,11.24
2023-03-30T07:12:14.294Z,11.28
2023-03-30T07:17:18.011Z,11.59
2023-03-30T07:22:21.551Z,11.76
2023-03-30T07:27:27.229Z,11.70
2023-03-30T07:32:33.285Z,11.57
2023-03-30T07:37:38.957Z,11.06
2023-03-30T07:42:43.732Z,10.96
2023-03-30T07:47:47.487Z,10.96
2023-03-30T07:52:52.536Z,10.94
2023-03-30T07:57:58.254Z,11.09
2023-03-30T08:03:01.977Z,11.17
2023-03-30T08:08:08.264Z,11.13
2023-03-30T08:13:13.878Z,11.10
2023-03-30T08:18:18.140Z,11.31
2023-03-30T08:23:21.812Z,11.47
2023-03-30T08:28:26.759Z,11.58
2023-03-30T08:33:29.839Z,11.79
2023-03-30T08:38:33.411Z,11.91
2023-03-30T08:43:46.727Z,12.03
2023-03-30T08:48:52.117Z,12.25
2023-03-30T08:53:59.044Z,12.27
2023-03-30T08:59:15.703Z,12.21
2023-03-30T09:04:26.523Z,12.29
2023-03-30T09:09:32.611Z,12.65
2023-03-30T09:14:42.599Z,12.78
2023-03-30T09:19:51.956Z,12.86
2023-03-30T09:24:55.578Z,13.37
2023-03-30T09:30:09.431Z,14.19
2023-03-30T09:35:16.192Z,14.55
2023-03-30T09:40:28.066Z,14.84
2023-03-30T09:45:35.716Z,14.79
2023-03-30T09:50:41.799Z,14.82
2023-03-30T09:55:56.850Z,14.96
2023-03-30T10:01:08.414Z,15.05
2023-03-30T10:06:13.908Z,15.06
2023-03-30T10:11:21.490Z,15.55
2023-03-30T10:16:29.311Z,15.56
2023-03-30T10:21:37.849Z,15.42
2023-03-30T10:26:44.241Z,15.74
2023-03-30T10:31:50.898Z,15.22
2023-03-30T10:36:55.144Z,15.41
2023-03-30T10:42:02.252Z,15.88
2023-03-30T10:47:22.069Z,15.86
2023-03-30T10:52:34.475Z,16.13
2023-03-30T10:57:46.634Z,15.95
2023-03-30T11:03:02.498Z,16.23
2023-03-30T11:08:08.477Z,16.49
2023-03-30T11:13:17.088Z,15.69
2023-03-30T11:18:26.980Z,16.06
2023-03-30T11:23:40.898Z,16.17
2023-03-30T11:28:54.734Z,16.09
2023-03-30T11:34:07.126Z,16.13
2023-03-30T11:39:28.962Z,16.24
2023-03-30T11:44:34.901Z,15.92
2023-03-30T11:49:54.493Z,16.28
2023-03-30T11:55:26.563Z,16.27
2023-03-30T12:00:42.864Z,17.03
2023-03-30T12:05:52.090Z,16.88
2023-03-30T12:11:04.723Z,16.17
2023-03-30T12:16:11.193Z,15.89
2023-03-30T12:21:29.816Z,15.95
2023-03-30T12:26:35.129Z,15.85
2023-03-30T12:32:07.799Z,15.62
2023-03-30T12:37:18.231Z,15.68
2023-03-30T12:42:27.652Z,16.00
2023-03-30T12:47:49.937Z,16.67
2023-03-30T12:53:12.496Z,15.88
2023-03-30T12:58:43.300Z,16.20
2023-03-30T13:03:52.744Z,16.02
2023-03-30T13:09:03.521Z,16.32
2023-03-30T13:14:17.925Z,15.55
2023-03-30T13:19:28.916Z,16.51
2023-03-30T13:24:44.489Z,17.22
2023-03-30T13:29:53.642Z,16.03
2023-03-30T13:35:24.062Z,13.23
2023-03-30T13:40:43.726Z,12.21
2023-03-30T13:46:09.582Z,11.61
2023-03-30T13:51:24.391Z,11.00
2023-03-30T13:56:32.695Z,10.81
2023-03-30T14:01:39.579Z,10.74
2023-03-30T14:06:45.856Z,10.76
2023-03-30T14:11:53.646Z,10.42
2023-03-30T14:16:57.891Z,10.58
2023-03-30T14:22:04.912Z,10.71
2023-03-30T14:27:15.389Z,10.69
2023-03-30T14:32:23.367Z,10.52
2023-03-30T14:37:27.375Z,11.04
2023-03-30T14:42:34.918Z,11.47
2023-03-30T14:47:38.742Z,11.36
2023-03-30T14:52:44.427Z,11.77
2023-03-30T14:57:50.359Z,12.47
2023-03-30T15:02:57.052Z,13.23
2023-03-30T15:08:00.559Z,12.74
2023-03-30T15:13:08.557Z,12.76
2023-03-30T15:18:22.282Z,12.58
2023-03-30T15:23:27.000Z,12.26
2023-03-30T15:28:35.120Z,12.31
2023-03-30T15:33:43.041Z,12.53
2023-03-30T15:38:50.870Z,12.60
2023-03-30T15:44:00.349Z,12.70
2023-03-30T15:49:04.612Z,12.78
2023-03-30T15:54:13.988Z,12.80
2023-03-30T15:59:22.053Z,12.78
2023-03-30T16:04:26.204Z,12.67
2023-03-30T16:09:29.400Z,12.16
2023-03-30T16:14:34.566Z,12.26
2023-03-30T16:19:38.290Z,12.48
2023-03-30T16:24:42.262Z,11.83
2023-03-30T16:29:47.004Z,11.52
2023-03-30T16:34:52.243Z,11.34
2023-03-30T16:39:55.687Z,11.12
2023-03-30T16:45:00.280Z,10.77
2023-03-30T16:50:11.822Z,10.70
2023-03-30T16:55:15.503Z,10.68
2023-03-30T17:00:23.652Z,10.52
2023-03-30T17:05:27.073Z,10.35
2023-03-30T17:10:33.342Z,10.21
2023-03-30T17:15:39.137Z,10.19
2023-03-30T17:20:44.754Z,10.19
2023-03-30T17:25:49.522Z,10.05
2023-03-30T17:30:56.646Z,10.29
2023-03-30T17:36:04.247Z,10.18
2023-03-30T17:41:08.479Z,10.20
2023-03-30T17:46:14.538Z,10.08
2023-03-30T17:51:18.547Z,9.80
2023-03-30T17:56:22.373Z,9.87
2023-03-30T18:01:27.574Z,9.80
2023-03-30T18:06:32.239Z,9.66
2023-03-30T18:11:35.951Z,9.48
2023-03-30T18:16:43.774Z,9.32
2023-03-30T18:21:47.387Z,9.25
2023-03-30T18:26:50.531Z,8.96
2023-03-30T18:31:55.494Z,8.90
2023-03-30T18:36:59.303Z,8.69
2023-03-30T18:42:03.362Z,8.64
2023-03-30T18:47:08.494Z,8.65
2023-03-30T18:52:11.812Z,8.53
2023-03-30T18:57:15.142Z,8.57
2023-03-30T19:02:19.866Z,8.47
2023-03-30T19:07:24.856Z,8.40
2023-03-30T19:12:28.794Z,8.40
2023-03-30T19:17:33.562Z,8.44
2023-03-30T19:22:37.338Z,8.37
2023-03-30T19:27:52.049Z,8.39
2023-03-30T19:33:08.711Z,8.35
2023-03-30T19:38:12.201Z,8.47
2023-03-30T19:43:16.209Z,8.47
2023-03-30T19:48:21.196Z,8.38
2023-03-30T19:53:24.977Z,8.18
2023-03-30T19:58:28.302Z,8.25
2023-03-30T20:03:35.399Z,8.23
2023-03-30T20:08:39.042Z,8.22
2023-03-30T20:13:45.979Z,7.96
2023-03-30T20:18:53.035Z,8.06
2023-03-30T20:23:58.882Z,8.08
2023-03-30T20:29:03.052Z,7.87
2023-03-30T20:34:10.331Z,7.87
2023-03-30T20:39:14.372Z,8.05
2023-03-30T20:44:18.183Z,7.90
2023-03-30T20:49:23.218Z,7.70
2023-03-30T20:54:26.757Z,7.72
2023-03-30T20:59:30.925Z,7.72
2023-03-30T21:04:36.512Z,7.64
2023-03-30T21:09:40.736Z,7.69
2023-03-30T21:14:45.922Z,7.60
2023-03-30T21:19:50.802Z,7.57
2023-03-30T21:24:54.150Z,7.60
2023-03-30T21:29:57.568Z,7.70
2023-03-30T21:35:02.375Z,7.98
2023-03-30T21:40:07.280Z,7.68
2023-03-30T21:45:12.111Z,7.95
2023-03-30T21:50:17.002Z,8.14
2023-03-30T21:55:20.262Z,7.92
2023-03-30T22:00:23.653Z,7.96
2023-03-30T22:05:28.422Z,8.09
2023-03-30T22:10:31.658Z,7.82
2023-03-30T22:15:35.179Z,7.64
2023-03-30T22:20:41.462Z,7.72
2023-03-30T22:25:44.758Z,7.61
2023-03-30T22:30:48.165Z,7.35
2023-03-30T22:35:53.058Z,7.36
2023-03-30T22:41:04.619Z,7.53
2023-03-30T22:46:10.356Z,7.46
2023-03-30T22:51:23.591Z,7.54
2023-03-30T22:56:29.061Z,7.66
2023-03-30T23:01:32.773Z,8.06
2023-03-30T23:06:37.562Z,8.24
2023-03-30T23:11:42.632Z,8.45
2023-03-30T23:16:46.113Z,8.69
2023-03-30T23:21:52.508Z,8.72
2023-03-30T23:26:55.873Z,8.75
2023-03-30T23:31:59.546Z,8.62
2023-03-30T23:37:04.119Z,8.73
2023-03-30T23:42:07.648Z,8.92
2023-03-30T23:47:10.948Z,8.71
2023-03-30T23:52:15.690Z,8.52
2023-03-30T23:57:19.297Z,8.59
